sensor_id;sensor_type;location;lat;lon;timestamp;P1;durP1;ratioP1;P2;durP2;ratioP2
5491;SDS011;2768;53.540;10.224;2023-04-01T00:04:51;7.63;;;4.20;;
5491;SDS011;2768;53.540;10.224;2023-04-01T00:10:44;5.47;;;3.40;;
5491;SDS011;2768;53.540;10.224;2023-04-01T00:16:37;6.60;;;3.10;;
5491;SDS011;2768;53.540;10.224;2023-04-01T00:22:33;5.77;;;3.40;;
5491;SDS011;2768;53.540;10.224;2023-04-01T00:28:26;7.40;;;3.60;;
5491;SDS011;2768;53.540;10.224;2023-04-01T00:34:20;6.90;;;3.60;;
5491;SDS011;2768;53.540;10.224;2023-04-01T00:40:23;7.10;;;3.50;;
5491;SDS011;2768;53.540;10.224;2023-04-01T00:46:19;6.23;;;3.47;;
5491;SDS011;2768;53.540;10.224;2023-04-01T00:52:14;7.43;;;3.80;;
5491;SDS011;2768;53.540;10.224;2023-04-01T00:58:13;4.03;;;3.17;;
5491;SDS011;2768;53.540;10.224;2023-04-01T01:04:19;4.47;;;3.30;;
5491;SDS011;2768;53.540;10.224;2023-04-01T01:10:17;7.40;;;4.17;;
5491;SDS011;2768;53.540;10.224;2023-04-01T01:16:14;5.67;;;3.87;;
5491;SDS011;2768;53.540;10.224;2023-04-01T01:22:23;6.33;;;3.70;;
5491;SDS011;2768;53.540;10.224;2023-04-01T01:28:31;5.07;;;4.30;;
5491;SDS011;2768;53.540;10.224;2023-04-01T01:34:32;6.07;;;4.00;;
5491;SDS011;2768;53.540;10.224;2023-04-01T01:40:34;5.30;;;4.20;;
5491;SDS011;2768;53.540;10.224;2023-04-01T01:46:31;6.47;;;3.77;;
5491;SDS011;2768;53.540;10.224;2023-04-01T01:52:26;4.60;;;3.70;;
5491;SDS011;2768;53.540;10.224;2023-04-01T01:58:23;7.80;;;4.27;;
5491;SDS011;2768;53.540;10.224;2023-04-01T02:04:20;7.43;;;4.10;;
5491;SDS011;2768;53.540;10.224;2023-04-01T02:10:15;7.10;;;4.00;;
5491;SDS011;2768;53.540;10.224;2023-04-01T02:16:11;6.97;;;4.40;;
5491;SDS011;2768;53.540;10.224;2023-04-01T02:22:09;5.63;;;4.73;;
5491;SDS011;2768;53.540;10.224;2023-04-01T02:28:05;5.27;;;4.57;;
5491;SDS011;2768;53.540;10.224;2023-04-01T02:34:01;6.83;;;4.97;;
5491;SDS011;2768;53.540;10.224;2023-04-01T02:39:58;5.40;;;4.47;;
5491;SDS011;2768;53.540;10.224;2023-04-01T02:45:52;8.43;;;5.00;;
5491;SDS011;2768;53.540;10.224;2023-04-01T02:51:48;6.87;;;4.70;;
5491;SDS011;2768;53.540;10.224;2023-04-01T02:57:43;8.53;;;4.97;;
5491;SDS011;2768;53.540;10.224;2023-04-01T03:03:36;9.43;;;5.20;;
5491;SDS011;2768;53.540;10.224;2023-04-01T03:09:31;6.57;;;4.37;;
5491;SDS011;2768;53.540;10.224;2023-04-01T03:15:24;5.73;;;4.67;;
5491;SDS011;2768;53.540;10.224;2023-04-01T03:21:19;5.63;;;4.40;;
5491;SDS011;2768;53.540;10.224;2023-04-01T03:27:15;6.27;;;4.50;;
5491;SDS011;2768;53.540;10.224;2023-04-01T03:33:09;4.97;;;4.47;;
5491;SDS011;2768;53.540;10.224;2023-04-01T03:39:02;4.70;;;4.13;;
5491;SDS011;2768;53.540;10.224;2023-04-01T03:45:05;5.27;;;4.47;;
5491;SDS011;2768;53.540;10.224;2023-04-01T03:50:59;6.40;;;5.17;;
5491;SDS011;2768;53.540;10.224;2023-04-01T03:56:53;7.80;;;4.87;;
5491;SDS011;2768;53.540;10.224;2023-04-01T04:02:51;5.67;;;5.03;;
5491;SDS011;2768;53.540;10.224;2023-04-01T04:08:49;7.73;;;5.87;;
5491;SDS011;2768;53.540;10.224;2023-04-01T04:14:43;5.57;;;5.07;;
5491;SDS011;2768;53.540;10.224;2023-04-01T04:20:37;5.90;;;4.73;;
5491;SDS011;2768;53.540;10.224;2023-04-01T04:26:38;5.60;;;5.10;;
5491;SDS011;2768;53.540;10.224;2023-04-01T04:32:31;5.07;;;4.57;;
5491;SDS011;2768;53.540;10.224;2023-04-01T04:38:26;4.97;;;4.30;;
5491;SDS011;2768;53.540;10.224;2023-04-01T04:44:20;6.37;;;5.00;;
5491;SDS011;2768;53.540;10.224;2023-04-01T04:50:13;5.27;;;4.40;;
5491;SDS011;2768;53.540;10.224;2023-04-01T04:56:09;7.23;;;5.53;;
5491;SDS011;2768;53.540;10.224;2023-04-01T05:02:09;5.00;;;4.60;;
5491;SDS011;2768;53.540;10.224;2023-04-01T05:08:03;5.23;;;4.73;;
5491;SDS011;2768;53.540;10.224;2023-04-01T05:13:57;5.67;;;4.50;;
5491;SDS011;2768;53.540;10.224;2023-04-01T05:19:54;4.03;;;3.73;;
5491;SDS011;2768;53.540;10.224;2023-04-01T05:25:48;3.87;;;3.57;;
5491;SDS011;2768;53.540;10.224;2023-04-01T05:31:43;2.37;;;1.77;;
5491;SDS011;2768;53.540;10.224;2023-04-01T05:37:37;0.80;;;0.80;;
5491;SDS011;2768;53.540;10.224;2023-04-01T05:43:31;1.10;;;1.10;;
5491;SDS011;2768;53.540;10.224;2023-04-01T05:49:35;1.40;;;1.30;;
5491;SDS011;2768;53.540;10.224;2023-04-01T05:55:29;2.57;;;1.20;;
5491;SDS011;2768;53.540;10.224;2023-04-01T06:01:22;0.90;;;0.90;;
5491;SDS011;2768;53.540;10.224;2023-04-01T06:07:17;0.93;;;0.80;;
5491;SDS011;2768;53.540;10.224;2023-04-01T06:13:11;0.93;;;0.90;;
5491;SDS011;2768;53.540;10.224;2023-04-01T06:19:14;1.03;;;0.93;;
5491;SDS011;2768;53.540;10.224;2023-04-01T06:25:31;1.03;;;0.97;;
5491;SDS011;2768;53.540;10.224;2023-04-01T06:31:52;1.43;;;1.33;;
5491;SDS011;2768;53.540;10.224;2023-04-01T06:38:09;0.90;;;0.90;;
5491;SDS011;2768;53.540;10.224;2023-04-01T06:44:18;0.80;;;0.80;;
5491;SDS011;2768;53.540;10.224;2023-04-01T06:50:36;0.80;;;0.80;;
5491;SDS011;2768;53.540;10.224;2023-04-01T06:56:56;0.90;;;0.87;;
5491;SDS011;2768;53.540;10.224;2023-04-01T07:02:55;0.80;;;0.80;;
5491;SDS011;2768;53.540;10.224;2023-04-01T07:08:58;1.00;;;0.60;;
5491;SDS011;2768;53.540;10.224;2023-04-01T07:15:18;0.73;;;0.73;;
5491;SDS011;2768;53.540;10.224;2023-04-01T07:21:18;1.17;;;0.80;;
5491;SDS011;2768;53.540;10.224;2023-04-01T07:27:17;1.20;;;0.90;;
5491;SDS011;2768;53.540;10.224;2023-04-01T07:33:13;0.90;;;0.90;;
5491;SDS011;2768;53.540;10.224;2023-04-01T07:39:16;0.83;;;0.80;;
5491;SDS011;2768;53.540;10.224;2023-04-01T07:45:34;1.33;;;0.70;;
5491;SDS011;2768;53.540;10.224;2023-04-01T07:51:36;0.73;;;0.67;;
5491;SDS011;2768;53.540;10.224;2023-04-01T07:57:36;3.00;;;0.73;;
5491;SDS011;2768;53.540;10.224;2023-04-01T08:03:38;1.10;;;1.10;;
5491;SDS011;2768;53.540;10.224;2023-04-01T08:09:51;2.03;;;0.70;;
5491;SDS011;2768;53.540;10.224;2023-04-01T08:16:14;0.73;;;0.73;;
5491;SDS011;2768;53.540;10.224;2023-04-01T08:22:16;1.30;;;1.20;;
5491;SDS011;2768;53.540;10.224;2023-04-01T08:28:17;0.83;;;0.70;;
5491;SDS011;2768;53.540;10.224;2023-04-01T08:34:18;0.70;;;0.70;;
5491;SDS011;2768;53.540;10.224;2023-04-01T08:40:19;0.70;;;0.70;;
5491;SDS011;2768;53.540;10.224;2023-04-01T08:52:51;0.70;;;0.70;;
5491;SDS011;2768;53.540;10.224;2023-04-01T08:58:57;1.00;;;0.80;;
5491;SDS011;2768;53.540;10.224;2023-04-01T09:05:08;0.70;;;0.70;;
5491;SDS011;2768;53.540;10.224;2023-04-01T09:11:33;0.70;;;0.70;;
5491;SDS011;2768;53.540;10.224;2023-04-01T09:17:44;0.70;;;0.70;;
5491;SDS011;2768;53.540;10.224;2023-04-01T09:24:10;0.93;;;0.80;;
5491;SDS011;2768;53.540;10.224;2023-04-01T09:30:36;0.70;;;0.70;;
5491;SDS011;2768;53.540;10.224;2023-04-01T09:36:43;1.27;;;0.90;;
5491;SDS011;2768;53.540;10.224;2023-04-01T09:42:41;0.70;;;0.70;;
5491;SDS011;2768;53.540;10.224;2023-04-01T09:48:50;0.80;;;0.80;;
5491;SDS011;2768;53.540;10.224;2023-04-01T09:55:19;0.93;;;0.93;;
5491;SDS011;2768;53.540;10.224;2023-04-01T10:14:37;0.63;;;0.63;;
5491;SDS011;2768;53.540;10.224;2023-04-01T10:27:29;0.70;;;0.70;;
5491;SDS011;2768;53.540;10.224;2023-04-01T10:33:57;0.87;;;0.60;;
5491;SDS011;2768;53.540;10.224;2023-04-01T10:40:19;0.50;;;0.50;;
5491;SDS011;2768;53.540;10.224;2023-04-01T10:47:08;0.57;;;0.57;;
5491;SDS011;2768;53.540;10.224;2023-04-01T11:00:18;0.63;;;0.60;;
5491;SDS011;2768;53.540;10.224;2023-04-01T11:13:43;0.80;;;0.80;;
5491;SDS011;2768;53.540;10.224;2023-04-01T11:26:30;2.00;;;1.43;;
5491;SDS011;2768;53.540;10.224;2023-04-01T11:32:51;1.47;;;1.10;;
5491;SDS011;2768;53.540;10.224;2023-04-01T11:38:57;0.90;;;0.90;;
5491;SDS011;2768;53.540;10.224;2023-04-01T11:45:29;1.17;;;1.07;;
5491;SDS011;2768;53.540;10.224;2023-04-01T11:51:39;1.50;;;1.40;;
5491;SDS011;2768;53.540;10.224;2023-04-01T12:04:31;2.07;;;1.90;;
5491;SDS011;2768;53.540;10.224;2023-04-01T12:10:39;2.30;;;1.87;;
5491;SDS011;2768;53.540;10.224;2023-04-01T12:16:42;2.30;;;2.20;;
5491;SDS011;2768;53.540;10.224;2023-04-01T12:22:53;2.40;;;2.20;;
5491;SDS011;2768;53.540;10.224;2023-04-01T12:29:04;2.50;;;2.30;;
5491;SDS011;2768;53.540;10.224;2023-04-01T12:35:16;2.73;;;2.20;;
5491;SDS011;2768;53.540;10.224;2023-04-01T12:41:17;3.07;;;2.40;;
5491;SDS011;2768;53.540;10.224;2023-04-01T12:47:27;2.20;;;1.97;;
5491;SDS011;2768;53.540;10.224;2023-04-01T12:53:44;2.87;;;2.47;;
5491;SDS011;2768;53.540;10.224;2023-04-01T12:59:55;3.13;;;2.77;;
5491;SDS011;2768;53.540;10.224;2023-04-01T13:12:46;7.43;;;6.53;;
5491;SDS011;2768;53.540;10.224;2023-04-01T13:18:59;3.80;;;2.97;;
5491;SDS011;2768;53.540;10.224;2023-04-01T13:24:58;2.53;;;2.33;;
5491;SDS011;2768;53.540;10.224;2023-04-01T13:30:59;3.10;;;2.27;;
5491;SDS011;2768;53.540;10.224;2023-04-01T13:37:00;2.30;;;2.10;;
5491;SDS011;2768;53.540;10.224;2023-04-01T13:43:10;2.77;;;2.53;;
5491;SDS011;2768;53.540;10.224;2023-04-01T13:49:11;2.23;;;2.03;;
5491;SDS011;2768;53.540;10.224;2023-04-01T13:55:29;4.60;;;2.47;;
5491;SDS011;2768;53.540;10.224;2023-04-01T14:01:49;2.73;;;2.20;;
5491;SDS011;2768;53.540;10.224;2023-04-01T14:07:56;3.03;;;2.30;;
5491;SDS011;2768;53.540;10.224;2023-04-01T14:14:02;2.97;;;2.30;;
5491;SDS011;2768;53.540;10.224;2023-04-01T14:20:27;3.60;;;2.70;;
5491;SDS011;2768;53.540;10.224;2023-04-01T14:26:29;4.30;;;2.70;;
5491;SDS011;2768;53.540;10.224;2023-04-01T14:32:39;3.70;;;2.70;;
5491;SDS011;2768;53.540;10.224;2023-04-01T14:38:51;3.07;;;2.77;;
5491;SDS011;2768;53.540;10.224;2023-04-01T14:51:15;4.63;;;2.93;;
5491;SDS011;2768;53.540;10.224;2023-04-01T14:57:12;3.00;;;2.70;;
5491;SDS011;2768;53.540;10.224;2023-04-01T15:03:08;4.37;;;2.60;;
5491;SDS011;2768;53.540;10.224;2023-04-01T15:09:08;3.37;;;2.90;;
5491;SDS011;2768;53.540;10.224;2023-04-01T15:15:19;5.50;;;3.60;;
5491;SDS011;2768;53.540;10.224;2023-04-01T15:21:38;3.83;;;2.80;;
5491;SDS011;2768;53.540;10.224;2023-04-01T15:27:55;4.77;;;2.63;;
5491;SDS011;2768;53.540;10.224;2023-04-01T15:34:19;6.30;;;3.60;;
5491;SDS011;2768;53.540;10.224;2023-04-01T15:40:20;4.90;;;3.33;;
5491;SDS011;2768;53.540;10.224;2023-04-01T15:52:38;4.27;;;3.20;;
5491;SDS011;2768;53.540;10.224;2023-04-01T15:58:40;5.33;;;3.80;;
5491;SDS011;2768;53.540;10.224;2023-04-01T16:04:46;3.70;;;3.10;;
5491;SDS011;2768;53.540;10.224;2023-04-01T16:10:47;6.33;;;3.87;;
5491;SDS011;2768;53.540;10.224;2023-04-01T16:16:53;4.23;;;3.03;;
5491;SDS011;2768;53.540;10.224;2023-04-01T16:23:02;5.17;;;3.10;;
5491;SDS011;2768;53.540;10.224;2023-04-01T16:29:06;5.30;;;3.30;;
5491;SDS011;2768;53.540;10.224;2023-04-01T16:35:21;6.27;;;3.20;;
5491;SDS011;2768;53.540;10.224;2023-04-01T16:41:23;5.20;;;3.77;;
5491;SDS011;2768;53.540;10.224;2023-04-01T16:47:23;9.60;;;3.70;;
5491;SDS011;2768;53.540;10.224;2023-04-01T16:53:25;6.40;;;4.00;;
5491;SDS011;2768;53.540;10.224;2023-04-01T16:59:29;7.33;;;4.20;;
5491;SDS011;2768;53.540;10.224;2023-04-01T17:11:53;4.77;;;3.20;;
5491;SDS011;2768;53.540;10.224;2023-04-01T17:17:55;4.23;;;3.40;;
5491;SDS011;2768;53.540;10.224;2023-04-01T17:24:00;9.07;;;3.53;;
5491;SDS011;2768;53.540;10.224;2023-04-01T17:30:17;5.50;;;3.10;;
5491;SDS011;2768;53.540;10.224;2023-04-01T17:36:18;4.40;;;2.60;;
5491;SDS011;2768;53.540;10.224;2023-04-01T17:42:26;4.53;;;3.40;;
5491;SDS011;2768;53.540;10.224;2023-04-01T17:48:32;3.03;;;2.77;;
5491;SDS011;2768;53.540;10.224;2023-04-01T17:54:34;4.43;;;3.40;;
5491;SDS011;2768;53.540;10.224;2023-04-01T18:00:36;6.13;;;2.70;;
5491;SDS011;2768;53.540;10.224;2023-04-01T18:06:47;5.13;;;3.70;;
5491;SDS011;2768;53.540;10.224;2023-04-01T18:13:09;4.83;;;4.13;;
5491;SDS011;2768;53.540;10.224;2023-04-01T18:19:23;6.23;;;3.87;;
5491;SDS011;2768;53.540;10.224;2023-04-01T18:25:21;5.63;;;3.20;;
5491;SDS011;2768;53.540;10.224;2023-04-01T18:31:20;4.37;;;2.77;;
5491;SDS011;2768;53.540;10.224;2023-04-01T18:37:18;5.10;;;3.03;;
5491;SDS011;2768;53.540;10.224;2023-04-01T18:43:18;6.47;;;3.50;;
5491;SDS011;2768;53.540;10.224;2023-04-01T18:49:21;4.80;;;3.50;;
5491;SDS011;2768;53.540;10.224;2023-04-01T18:55:23;6.80;;;5.60;;
5491;SDS011;2768;53.540;10.224;2023-04-01T19:01:23;5.83;;;4.63;;
5491;SDS011;2768;53.540;10.224;2023-04-01T19:07:39;4.00;;;3.40;;
5491;SDS011;2768;53.540;10.224;2023-04-01T19:13:38;3.77;;;2.67;;
5491;SDS011;2768;53.540;10.224;2023-04-01T19:19:45;3.43;;;2.07;;
5491;SDS011;2768;53.540;10.224;2023-04-01T19:25:46;4.27;;;2.73;;
5491;SDS011;2768;53.540;10.224;2023-04-01T19:31:49;5.37;;;2.47;;
5491;SDS011;2768;53.540;10.224;2023-04-01T19:37:50;3.10;;;2.50;;
5491;SDS011;2768;53.540;10.224;2023-04-01T19:43:50;6.10;;;2.97;;
5491;SDS011;2768;53.540;10.224;2023-04-01T19:49:51;2.67;;;1.83;;
5491;SDS011;2768;53.540;10.224;2023-04-01T19:55:53;4.47;;;2.13;;
5491;SDS011;2768;53.540;10.224;2023-04-01T20:01:53;3.43;;;2.70;;
5491;SDS011;2768;53.540;10.224;2023-04-01T20:07:56;2.73;;;2.47;;
5491;SDS011;2768;53.540;10.224;2023-04-01T20:14:02;6.00;;;2.63;;
5491;SDS011;2768;53.540;10.224;2023-04-01T20:20:14;5.27;;;2.50;;
5491;SDS011;2768;53.540;10.224;2023-04-01T20:26:14;3.53;;;2.30;;
5491;SDS011;2768;53.540;10.224;2023-04-01T20:32:18;5.50;;;2.17;;
5491;SDS011;2768;53.540;10.224;2023-04-01T20:38:37;3.07;;;2.70;;
5491;SDS011;2768;53.540;10.224;2023-04-01T20:44:53;3.23;;;2.30;;
5491;SDS011;2768;53.540;10.224;2023-04-01T20:51:03;3.50;;;2.30;;
5491;SDS011;2768;53.540;10.224;2023-04-01T20:57:00;3.73;;;1.97;;
5491;SDS011;2768;53.540;10.224;2023-04-01T21:03:05;5.13;;;2.30;;
5491;SDS011;2768;53.540;10.224;2023-04-01T21:09:13;6.73;;;2.10;;
5491;SDS011;2768;53.540;10.224;2023-04-01T21:15:35;2.63;;;2.40;;
5491;SDS011;2768;53.540;10.224;2023-04-01T21:21:43;3.60;;;2.07;;
5491;SDS011;2768;53.540;10.224;2023-04-01T21:27:57;5.13;;;2.20;;
5491;SDS011;2768;53.540;10.224;2023-04-01T21:47:18;2.00;;;1.83;;
5491;SDS011;2768;53.540;10.224;2023-04-01T22:00:07;3.77;;;1.77;;
5491;SDS011;2768;53.540;10.224;2023-04-01T22:06:18;4.67;;;1.50;;
5491;SDS011;2768;53.540;10.224;2023-04-01T22:12:17;3.20;;;1.43;;
5491;SDS011;2768;53.540;10.224;2023-04-01T22:18:18;3.30;;;3.00;;
5491;SDS011;2768;53.540;10.224;2023-04-01T22:24:23;1.60;;;1.50;;
5491;SDS011;2768;53.540;10.224;2023-04-01T22:30:21;5.47;;;1.90;;
5491;SDS011;2768;53.540;10.224;2023-04-01T22:36:19;1.77;;;1.47;;
5491;SDS011;2768;53.540;10.224;2023-04-01T22:42:24;2.73;;;1.77;;
5491;SDS011;2768;53.540;10.224;2023-04-01T22:48:30;2.80;;;1.70;;
5491;SDS011;2768;53.540;10.224;2023-04-01T22:54:30;3.10;;;1.37;;
5491;SDS011;2768;53.540;10.224;2023-04-01T23:00:30;3.93;;;1.90;;
5491;SDS011;2768;53.540;10.224;2023-04-01T23:06:27;6.93;;;1.80;;
5491;SDS011;2768;53.540;10.224;2023-04-01T23:12:24;2.30;;;1.40;;
5491;SDS011;2768;53.540;10.224;2023-04-01T23:18:22;3.73;;;1.63;;
5491;SDS011;2768;53.540;10.224;2023-04-01T23:24:19;2.30;;;1.40;;
5491;SDS011;2768;53.540;10.224;2023-04-01T23:36:43;3.73;;;1.40;;
5491;SDS011;2768;53.540;10.224;2023-04-01T23:42:39;1.93;;;1.47;;
5491;SDS011;2768;53.540;10.224;2023-04-01T23:48:35;4.73;;;1.73;;
5491;SDS011;2768;53.540;10.224;2023-04-01T23:54:33;6.13;;;2.07;;
